sensor_id;sensor_type;location;lat;lon;timestamp;pressure;altitude;pressure_sealevel;temperature;humidity
48668;BME280;34453;52.198;5.004;2023-03-24T00:00:38;99848.59;;;11.39;100.00
48668;BME280;34453;52.198;5.004;2023-03-24T00:03:04;99853.31;;;11.44;100.00
48668;BME280;34453;52.198;5.004;2023-03-24T00:05:29;99851.34;;;11.46;100.00
48668;BME280;34453;52.198;5.004;2023-03-24T00:07:55;99843.34;;;11.47;100.00
48668;BME280;34453;52.198;5.004;2023-03-24T00:10:21;99842.38;;;11.40;100.00
48668;BME280;34453;52.198;5.004;2023-03-24T00:12:47;99828.31;;;11.41;100.00
48668;BME280;34453;52.198;5.004;2023-03-24T00:15:17;99823.88;;;11.41;100.00
48668;BME280;34453;52.198;5.004;2023-03-24T00:17:46;99816.16;;;11.40;100.00
48668;BME280;34453;52.198;5.004;2023-03-24T00:20:15;99813.41;;;11.41;100.00
48668;BME280;34453;52.198;5.004;2023-03-24T00:22:43;99809.63;;;11.36;100.00
48668;BME280;34453;52.198;5.004;2023-03-24T00:25:19;99819.78;;;11.39;100.00
48668;BME280;34453;52.198;5.004;2023-03-24T00:27:45;99796.38;;;11.37;100.00
48668;BME280;34453;52.198;5.004;2023-03-24T00:30:14;99810.63;;;11.43;100.00
48668;BME280;34453;52.198;5.004;2023-03-24T00:32:39;99807.66;;;11.38;100.00
48668;BME280;34453;52.198;5.004;2023-03-24T00:35:07;99811.78;;;11.40;100.00
48668;BME280;34453;52.198;5.004;2023-03-24T00:37:35;99816.50;;;11.45;100.00
48668;BME280;34453;52.198;5.004;2023-03-24T00:40:03;99812.06;;;11.46;100.00
48668;BME280;34453;52.198;5.004;2023-03-24T00:42:34;99806.34;;;11.42;100.00
48668;BME280;34453;52.198;5.004;2023-03-24T00:45:03;99785.22;;;11.44;100.00
48668;BME280;34453;52.198;5.004;2023-03-24T00:47:30;99795.72;;;11.44;100.00
48668;BME280;34453;52.198;5.004;2023-03-24T00:50:04;99794.66;;;11.53;100.00
48668;BME280;34453;52.198;5.004;2023-03-24T00:52:30;99782.06;;;11.56;100.00
48668;BME280;34453;52.198;5.004;2023-03-24T00:54:59;99764.66;;;11.64;100.00
48668;BME280;34453;52.198;5.004;2023-03-24T00:57:27;99753.00;;;11.66;100.00
48668;BME280;34453;52.198;5.004;2023-03-24T00:59:54;99762.66;;;11.66;100.00
48668;BME280;34453;52.198;5.004;2023-03-24T01:02:23;99743.00;;;11.70;100.00
48668;BME280;34453;52.198;5.004;2023-03-24T01:04:53;99748.88;;;11.72;100.00
48668;BME280;34453;52.198;5.004;2023-03-24T01:07:20;99752.75;;;11.76;100.00
48668;BME280;34453;52.198;5.004;2023-03-24T01:09:47;99774.56;;;11.76;100.00
48668;BME280;34453;52.198;5.004;2023-03-24T01:12:22;99738.84;;;11.75;100.00
48668;BME280;34453;52.198;5.004;2023-03-24T01:14:48;99742.28;;;11.76;100.00
48668;BME280;34453;52.198;5.004;2023-03-24T01:17:14;99743.91;;;11.77;100.00
48668;BME280;34453;52.198;5.004;2023-03-24T01:19:39;99747.50;;;11.76;100.00
48668;BME280;34453;52.198;5.004;2023-03-24T01:22:05;99734.59;;;11.74;100.00
48668;BME280;34453;52.198;5.004;2023-03-24T01:24:31;99730.97;;;11.75;100.00
48668;BME280;34453;52.198;5.004;2023-03-24T01:26:57;99724.47;;;11.71;100.00
48668;BME280;34453;52.198;5.004;2023-03-24T01:29:23;99728.72;;;11.72;100.00
48668;BME280;34453;52.198;5.004;2023-03-24T01:31:48;99728.91;;;11.71;100.00
48668;BME280;34453;52.198;5.004;2023-03-24T01:34:14;99725.28;;;11.72;100.00
48668;BME280;34453;52.198;5.004;2023-03-24T01:36:39;99725.94;;;11.74;100.00
48668;BME280;34453;52.198;5.004;2023-03-24T01:39:04;99722.69;;;11.72;100.00
48668;BME280;34453;52.198;5.004;2023-03-24T01:41:33;99720.34;;;11.77;100.00
48668;BME280;34453;52.198;5.004;2023-03-24T01:44:00;99720.06;;;11.72;100.00
48668;BME280;34453;52.198;5.004;2023-03-24T01:46:25;99710.28;;;11.66;100.00
48668;BME280;34453;52.198;5.004;2023-03-24T01:49:05;99712.00;;;11.73;100.00
48668;BME280;34453;52.198;5.004;2023-03-24T01:51:38;99713.81;;;11.73;100.00
48668;BME280;34453;52.198;5.004;2023-03-24T01:54:12;99726.38;;;11.77;100.00
48668;BME280;34453;52.198;5.004;2023-03-24T01:56:42;99726.75;;;11.74;100.00
48668;BME280;34453;52.198;5.004;2023-03-24T01:59:12;99716.78;;;11.70;100.00
48668;BME280;34453;52.198;5.004;2023-03-24T02:01:39;99719.69;;;11.75;100.00
48668;BME280;34453;52.198;5.004;2023-03-24T02:04:05;99724.78;;;11.76;100.00
48668;BME280;34453;52.198;5.004;2023-03-24T02:06:34;99723.22;;;11.90;100.00
48668;BME280;34453;52.198;5.004;2023-03-24T02:09:00;99734.06;;;12.02;100.00
48668;BME280;34453;52.198;5.004;2023-03-24T02:11:29;99774.84;;;12.05;100.00
48668;BME280;34453;52.198;5.004;2023-03-24T02:13:55;99804.22;;;12.00;100.00
48668;BME280;34453;52.198;5.004;2023-03-24T02:44:54;99824.72;;;10.86;100.00
48668;BME280;34453;52.198;5.004;2023-03-24T02:53:37;99827.03;;;10.65;100.00
48668;BME280;34453;52.198;5.004;2023-03-24T02:56:10;99829.34;;;10.60;100.00
48668;BME280;34453;52.198;5.004;2023-03-24T02:58:48;99820.69;;;10.51;100.00
48668;BME280;34453;52.198;5.004;2023-03-24T03:01:29;99832.81;;;10.52;100.00
48668;BME280;34453;52.198;5.004;2023-03-24T03:04:05;99840.31;;;10.47;100.00
48668;BME280;34453;52.198;5.004;2023-03-24T03:06:35;99866.94;;;10.42;100.00
48668;BME280;34453;52.198;5.004;2023-03-24T03:09:07;99855.38;;;10.36;100.00
48668;BME280;34453;52.198;5.004;2023-03-24T03:11:34;99870.25;;;10.36;100.00
48668;BME280;34453;52.198;5.004;2023-03-24T03:14:10;99859.09;;;10.42;100.00
48668;BME280;34453;52.198;5.004;2023-03-24T03:16:45;99868.59;;;10.35;100.00
48668;BME280;34453;52.198;5.004;2023-03-24T03:19:42;99878.72;;;10.30;100.00
48668;BME280;34453;52.198;5.004;2023-03-24T03:22:21;99883.75;;;10.23;100.00
48668;BME280;34453;52.198;5.004;2023-03-24T03:24:51;99907.41;;;10.13;100.00
48668;BME280;34453;52.198;5.004;2023-03-24T03:27:33;99906.13;;;10.09;100.00
48668;BME280;34453;52.198;5.004;2023-03-24T03:30:07;99893.50;;;10.05;100.00
48668;BME280;34453;52.198;5.004;2023-03-24T03:32:39;99897.44;;;10.01;100.00
48668;BME280;34453;52.198;5.004;2023-03-24T03:35:25;99898.09;;;9.94;100.00
48668;BME280;34453;52.198;5.004;2023-03-24T03:40:51;99893.16;;;9.91;100.00
48668;BME280;34453;52.198;5.004;2023-03-24T03:43:18;99916.19;;;9.88;100.00
48668;BME280;34453;52.198;5.004;2023-03-24T03:45:44;99907.84;;;9.84;100.00
48668;BME280;34453;52.198;5.004;2023-03-24T03:48:10;99916.78;;;9.73;100.00
48668;BME280;34453;52.198;5.004;2023-03-24T03:50:36;99895.41;;;9.70;100.00
48668;BME280;34453;52.198;5.004;2023-03-24T03:53:04;99904.19;;;9.69;100.00
48668;BME280;34453;52.198;5.004;2023-03-24T03:55:30;99927.22;;;9.65;100.00
48668;BME280;34453;52.198;5.004;2023-03-24T03:57:56;99917.53;;;9.58;100.00
48668;BME280;34453;52.198;5.004;2023-03-24T04:00:22;99956.41;;;9.61;100.00
48668;BME280;34453;52.198;5.004;2023-03-24T04:05:49;99943.66;;;9.58;100.00
48668;BME280;34453;52.198;5.004;2023-03-24T04:08:44;99951.00;;;9.54;100.00
48668;BME280;34453;52.198;5.004;2023-03-24T04:22:01;99947.44;;;9.63;100.00
48668;BME280;34453;52.198;5.004;2023-03-24T04:24:43;99958.72;;;9.64;100.00
48668;BME280;34453;52.198;5.004;2023-03-24T04:30:14;99980.59;;;9.63;100.00
48668;BME280;34453;52.198;5.004;2023-03-24T04:32:59;99986.78;;;9.62;100.00
48668;BME280;34453;52.198;5.004;2023-03-24T04:35:35;99992.31;;;9.59;100.00
48668;BME280;34453;52.198;5.004;2023-03-24T04:38:17;99999.97;;;9.60;100.00
48668;BME280;34453;52.198;5.004;2023-03-24T04:40:48;99993.94;;;9.60;100.00
48668;BME280;34453;52.198;5.004;2023-03-24T04:43:18;100004.03;;;9.54;100.00
48668;BME280;34453;52.198;5.004;2023-03-24T04:45:45;100012.53;;;9.57;100.00
48668;BME280;34453;52.198;5.004;2023-03-24T04:48:16;100010.22;;;9.53;100.00
48668;BME280;34453;52.198;5.004;2023-03-24T04:50:59;100010.88;;;9.55;100.00
48668;BME280;34453;52.198;5.004;2023-03-24T04:53:26;100011.06;;;9.54;100.00
48668;BME280;34453;52.198;5.004;2023-03-24T04:58:28;100015.44;;;9.53;100.00
48668;BME280;34453;52.198;5.004;2023-03-24T05:00:53;100014.13;;;9.49;100.00
48668;BME280;34453;52.198;5.004;2023-03-24T05:03:20;100017.72;;;9.48;100.00
48668;BME280;34453;52.198;5.004;2023-03-24T05:05:48;100022.25;;;9.46;100.00
48668;BME280;34453;52.198;5.004;2023-03-24T05:08:15;100029.06;;;9.39;100.00
48668;BME280;34453;52.198;5.004;2023-03-24T05:10:40;100033.09;;;9.33;100.00
48668;BME280;34453;52.198;5.004;2023-03-24T05:13:07;100040.72;;;9.27;100.00
48668;BME280;34453;52.198;5.004;2023-03-24T05:15:33;100032.22;;;9.25;100.00
48668;BME280;34453;52.198;5.004;2023-03-24T05:17:58;100034.47;;;9.20;100.00
48668;BME280;34453;52.198;5.004;2023-03-24T05:20:25;100030.53;;;9.16;100.00
48668;BME280;34453;52.198;5.004;2023-03-24T05:22:51;100043.56;;;9.16;100.00
48668;BME280;34453;52.198;5.004;2023-03-24T05:25:17;100048.56;;;9.09;100.00
48668;BME280;34453;52.198;5.004;2023-03-24T05:27:43;100048.06;;;9.05;100.00
48668;BME280;34453;52.198;5.004;2023-03-24T05:30:10;100067.28;;;9.04;100.00
48668;BME280;34453;52.198;5.004;2023-03-24T05:32:36;100079.06;;;9.08;100.00
48668;BME280;34453;52.198;5.004;2023-03-24T05:35:01;100068.63;;;9.08;100.00
48668;BME280;34453;52.198;5.004;2023-03-24T05:37:27;100086.09;;;9.08;100.00
48668;BME280;34453;52.198;5.004;2023-03-24T05:39:53;100066.03;;;9.08;100.00
48668;BME280;34453;52.198;5.004;2023-03-24T05:42:19;100072.28;;;9.16;100.00
48668;BME280;34453;52.198;5.004;2023-03-24T05:44:44;100078.16;;;9.18;100.00
48668;BME280;34453;52.198;5.004;2023-03-24T05:47:11;100075.94;;;9.23;100.00
48668;BME280;34453;52.198;5.004;2023-03-24T05:49:37;100062.94;;;9.31;100.00
48668;BME280;34453;52.198;5.004;2023-03-24T05:52:03;100086.28;;;9.32;100.00
48668;BME280;34453;52.198;5.004;2023-03-24T05:54:30;100076.06;;;9.39;100.00
48668;BME280;34453;52.198;5.004;2023-03-24T05:56:58;100087.53;;;9.46;100.00
48668;BME280;34453;52.198;5.004;2023-03-24T05:59:23;100072.53;;;9.48;100.00
48668;BME280;34453;52.198;5.004;2023-03-24T06:01:49;100073.22;;;9.50;100.00
48668;BME280;34453;52.198;5.004;2023-03-24T06:04:14;100074.53;;;9.54;100.00
48668;BME280;34453;52.198;5.004;2023-03-24T06:06:39;100092.38;;;9.59;100.00
48668;BME280;34453;52.198;5.004;2023-03-24T06:09:05;100083.41;;;9.62;100.00
48668;BME280;34453;52.198;5.004;2023-03-24T06:11:31;100079.97;;;9.61;100.00
48668;BME280;34453;52.198;5.004;2023-03-24T06:13:56;100103.97;;;9.65;100.00
48668;BME280;34453;52.198;5.004;2023-03-24T06:16:28;100090.63;;;9.68;100.00
48668;BME280;34453;52.198;5.004;2023-03-24T06:18:54;100101.75;;;9.70;100.00
48668;BME280;34453;52.198;5.004;2023-03-24T06:21:20;100110.25;;;9.72;100.00
48668;BME280;34453;52.198;5.004;2023-03-24T06:23:45;100104.50;;;9.68;100.00
48668;BME280;34453;52.198;5.004;2023-03-24T06:26:12;100109.72;;;9.68;100.00
48668;BME280;34453;52.198;5.004;2023-03-24T06:28:39;100112.03;;;9.71;100.00
48668;BME280;34453;52.198;5.004;2023-03-24T06:31:06;100118.09;;;9.72;100.00
48668;BME280;34453;52.198;5.004;2023-03-24T06:33:42;100110.25;;;9.72;100.00
48668;BME280;34453;52.198;5.004;2023-03-24T06:36:09;100104.84;;;9.73;100.00
48668;BME280;34453;52.198;5.004;2023-03-24T06:38:34;100103.91;;;9.74;100.00
48668;BME280;34453;52.198;5.004;2023-03-24T06:41:01;100115.81;;;9.77;100.00
48668;BME280;34453;52.198;5.004;2023-03-24T06:43:27;100134.13;;;9.77;100.00
48668;BME280;34453;52.198;5.004;2023-03-24T06:45:52;100103.28;;;9.81;100.00
48668;BME280;34453;52.198;5.004;2023-03-24T06:48:18;100131.03;;;9.82;100.00
48668;BME280;34453;52.198;5.004;2023-03-24T06:50:43;100121.56;;;9.81;100.00
48668;BME280;34453;52.198;5.004;2023-03-24T06:53:09;100129.56;;;9.79;100.00
48668;BME280;34453;52.198;5.004;2023-03-24T06:55:34;100125.00;;;9.81;100.00
48668;BME280;34453;52.198;5.004;2023-03-24T06:58:00;100148.66;;;9.80;100.00
48668;BME280;34453;52.198;5.004;2023-03-24T07:00:26;100130.91;;;9.83;100.00
48668;BME280;34453;52.198;5.004;2023-03-24T07:02:53;100151.47;;;9.86;100.00
48668;BME280;34453;52.198;5.004;2023-03-24T07:05:20;100154.09;;;9.86;100.00
48668;BME280;34453;52.198;5.004;2023-03-24T07:07:46;100148.25;;;9.92;100.00
48668;BME280;34453;52.198;5.004;2023-03-24T07:10:13;100145.50;;;9.94;100.00
48668;BME280;34453;52.198;5.004;2023-03-24T07:12:39;100154.16;;;9.94;100.00
48668;BME280;34453;52.198;5.004;2023-03-24T07:15:05;100157.25;;;9.98;100.00
48668;BME280;34453;52.198;5.004;2023-03-24T07:17:32;100150.94;;;10.01;100.00
48668;BME280;34453;52.198;5.004;2023-03-24T07:19:58;100152.72;;;10.00;100.00
48668;BME280;34453;52.198;5.004;2023-03-24T07:22:23;100156.50;;;10.06;100.00
48668;BME280;34453;52.198;5.004;2023-03-24T07:24:48;100157.47;;;10.05;100.00
48668;BME280;34453;52.198;5.004;2023-03-24T07:27:14;100181.50;;;10.08;100.00
48668;BME280;34453;52.198;5.004;2023-03-24T07:29:40;100178.44;;;10.13;100.00
48668;BME280;34453;52.198;5.004;2023-03-24T07:32:05;100181.72;;;10.15;100.00
48668;BME280;34453;52.198;5.004;2023-03-24T07:34:32;100166.38;;;10.20;100.00
48668;BME280;34453;52.198;5.004;2023-03-24T07:36:58;100181.09;;;10.21;100.00
48668;BME280;34453;52.198;5.004;2023-03-24T07:39:24;100193.38;;;10.21;100.00
48668;BME280;34453;52.198;5.004;2023-03-24T07:41:50;100172.28;;;10.22;100.00
48668;BME280;34453;52.198;5.004;2023-03-24T07:44:15;100182.72;;;10.22;100.00
48668;BME280;34453;52.198;5.004;2023-03-24T07:46:40;100168.59;;;10.33;100.00
48668;BME280;34453;52.198;5.004;2023-03-24T07:49:06;100186.09;;;10.32;100.00
48668;BME280;34453;52.198;5.004;2023-03-24T07:51:31;100185.63;;;10.37;100.00
48668;BME280;34453;52.198;5.004;2023-03-24T07:53:57;100185.78;;;10.35;100.00
48668;BME280;34453;52.198;5.004;2023-03-24T07:56:23;100186.63;;;10.36;100.00
48668;BME280;34453;52.198;5.004;2023-03-24T07:58:48;100193.16;;;10.40;100.00
48668;BME280;34453;52.198;5.004;2023-03-24T08:01:13;100187.59;;;10.35;100.00
48668;BME280;34453;52.198;5.004;2023-03-24T08:03:39;100203.41;;;10.33;100.00
48668;BME280;34453;52.198;5.004;2023-03-24T08:06:08;100201.41;;;10.27;100.00
48668;BME280;34453;52.198;5.004;2023-03-24T08:08:34;100193.16;;;10.40;100.00
48668;BME280;34453;52.198;5.004;2023-03-24T08:11:00;100204.81;;;10.46;100.00
48668;BME280;34453;52.198;5.004;2023-03-24T08:13:26;100208.94;;;10.56;100.00
48668;BME280;34453;52.198;5.004;2023-03-24T08:15:52;100206.34;;;10.56;100.00
48668;BME280;34453;52.198;5.004;2023-03-24T08:18:21;100194.88;;;10.49;100.00
48668;BME280;34453;52.198;5.004;2023-03-24T08:20:49;100216.41;;;10.43;100.00
48668;BME280;34453;52.198;5.004;2023-03-24T08:23:19;100211.09;;;10.69;100.00
48668;BME280;34453;52.198;5.004;2023-03-24T08:25:44;100213.63;;;10.79;100.00
48668;BME280;34453;52.198;5.004;2023-03-24T08:28:12;100211.50;;;10.83;100.00
48668;BME280;34453;52.198;5.004;2023-03-24T08:30:37;100197.88;;;10.71;100.00
48668;BME280;34453;52.198;5.004;2023-03-24T08:33:03;100229.47;;;10.77;100.00
48668;BME280;34453;52.198;5.004;2023-03-24T08:35:33;100225.25;;;10.85;100.00
48668;BME280;34453;52.198;5.004;2023-03-24T08:38:02;100229.47;;;10.77;100.00
48668;BME280;34453;52.198;5.004;2023-03-24T08:40:28;100237.28;;;10.69;100.00
48668;BME280;34453;52.198;5.004;2023-03-24T08:42:58;100235.03;;;10.74;100.00
48668;BME280;34453;52.198;5.004;2023-03-24T08:45:26;100224.00;;;10.97;100.00
48668;BME280;34453;52.198;5.004;2023-03-24T08:47:53;100211.59;;;11.07;100.00
48668;BME280;34453;52.198;5.004;2023-03-24T08:50:21;100226.03;;;11.28;100.00
48668;BME280;34453;52.198;5.004;2023-03-24T08:52:48;100223.72;;;11.25;100.00
48668;BME280;34453;52.198;5.004;2023-03-24T08:55:14;100222.78;;;11.34;100.00
48668;BME280;34453;52.198;5.004;2023-03-24T08:57:40;100225.88;;;11.21;100.00
48668;BME280;34453;52.198;5.004;2023-03-24T09:00:06;100226.34;;;11.25;100.00
48668;BME280;34453;52.198;5.004;2023-03-24T09:02:42;100225.03;;;11.29;100.00
48668;BME280;34453;52.198;5.004;2023-03-24T09:05:09;100228.66;;;11.36;100.00
48668;BME280;34453;52.198;5.004;2023-03-24T09:07:35;100248.00;;;11.43;100.00
48668;BME280;34453;52.198;5.004;2023-03-24T09:10:00;100243.16;;;11.06;100.00
48668;BME280;34453;52.198;5.004;2023-03-24T09:12:26;100248.84;;;10.93;100.00
48668;BME280;34453;52.198;5.004;2023-03-24T09:14:51;100260.44;;;10.90;100.00
48668;BME280;34453;52.198;5.004;2023-03-24T09:17:17;100265.72;;;11.07;100.00
48668;BME280;34453;52.198;5.004;2023-03-24T09:19:43;100254.16;;;11.17;100.00
48668;BME280;34453;52.198;5.004;2023-03-24T09:22:10;100262.75;;;11.52;100.00
48668;BME280;34453;52.198;5.004;2023-03-24T09:24:35;100265.25;;;11.78;100.00
48668;BME280;34453;52.198;5.004;2023-03-24T09:27:01;100261.28;;;11.66;100.00
48668;BME280;34453;52.198;5.004;2023-03-24T09:29:26;100260.59;;;11.56;100.00
48668;BME280;34453;52.198;5.004;2023-03-24T09:31:54;100255.19;;;11.41;100.00
48668;BME280;34453;52.198;5.004;2023-03-24T09:34:21;100263.72;;;11.43;100.00
48668;BME280;34453;52.198;5.004;2023-03-24T09:36:47;100259.97;;;11.62;100.00
48668;BME280;34453;52.198;5.004;2023-03-24T09:39:13;100291.94;;;11.82;100.00
48668;BME280;34453;52.198;5.004;2023-03-24T09:41:38;100258.22;;;12.03;100.00
48668;BME280;34453;52.198;5.004;2023-03-24T09:46:41;100270.13;;;11.73;100.00
48668;BME280;34453;52.198;5.004;2023-03-24T09:49:12;100258.53;;;12.00;100.00
48668;BME280;34453;52.198;5.004;2023-03-24T09:51:42;100273.66;;;11.98;100.00
48668;BME280;34453;52.198;5.004;2023-03-24T09:54:28;100293.25;;;11.70;100.00
48668;BME280;34453;52.198;5.004;2023-03-24T09:56:56;100296.94;;;11.34;100.00
48668;BME280;34453;52.198;5.004;2023-03-24T09:59:32;100310.78;;;11.18;100.00
48668;BME280;34453;52.198;5.004;2023-03-24T10:01:58;100295.72;;;11.12;100.00
48668;BME280;34453;52.198;5.004;2023-03-24T10:04:26;100289.56;;;11.38;100.00
48668;BME280;34453;52.198;5.004;2023-03-24T10:09:55;100301.06;;;11.45;100.00
48668;BME280;34453;52.198;5.004;2023-03-24T10:12:38;100290.50;;;11.29;100.00
48668;BME280;34453;52.198;5.004;2023-03-24T10:17:50;100291.59;;;11.69;100.00
48668;BME280;34453;52.198;5.004;2023-03-24T10:20:34;100294.09;;;12.11;100.00
48668;BME280;34453;52.198;5.004;2023-03-24T10:26:37;100286.91;;;12.05;100.00
48668;BME280;34453;52.198;5.004;2023-03-24T10:29:35;100274.19;;;12.74;100.00
48668;BME280;34453;52.198;5.004;2023-03-24T10:32:08;100274.63;;;12.86;100.00
48668;BME280;34453;52.198;5.004;2023-03-24T10:34:37;100284.69;;;12.58;100.00
48668;BME280;34453;52.198;5.004;2023-03-24T10:37:09;100284.41;;;12.53;100.00
48668;BME280;34453;52.198;5.004;2023-03-24T10:39:35;100289.56;;;12.85;100.00
48668;BME280;34453;52.198;5.004;2023-03-24T10:42:02;100291.06;;;13.19;100.00
48668;BME280;34453;52.198;5.004;2023-03-24T10:44:28;100280.59;;;13.11;100.00
48668;BME280;34453;52.198;5.004;2023-03-24T10:46:57;100274.28;;;12.89;100.00
48668;BME280;34453;52.198;5.004;2023-03-24T10:49:23;100276.66;;;13.07;100.00
48668;BME280;34453;52.198;5.004;2023-03-24T10:51:51;100268.50;;;12.94;100.00
48668;BME280;34453;52.198;5.004;2023-03-24T10:54:21;100281.84;;;13.23;100.00
48668;BME280;34453;52.198;5.004;2023-03-24T10:57:00;100285.63;;;13.29;100.00
48668;BME280;34453;52.198;5.004;2023-03-24T10:59:37;100284.09;;;12.95;100.00
48668;BME280;34453;52.198;5.004;2023-03-24T11:02:19;100293.44;;;12.98;100.00
48668;BME280;34453;52.198;5.004;2023-03-24T11:04:54;100287.59;;;12.88;100.00
48668;BME280;34453;52.198;5.004;2023-03-24T11:07:22;100304.06;;;12.65;100.00
48668;BME280;34453;52.198;5.004;2023-03-24T11:12:29;100295.00;;;12.76;100.00
48668;BME280;34453;52.198;5.004;2023-03-24T11:17:40;100302.31;;;13.05;100.00
48668;BME280;34453;52.198;5.004;2023-03-24T11:20:21;100295.69;;;12.70;100.00
48668;BME280;34453;52.198;5.004;2023-03-24T11:23:07;100325.75;;;12.34;100.00
48668;BME280;34453;52.198;5.004;2023-03-24T11:25:35;100303.75;;;12.52;100.00
48668;BME280;34453;52.198;5.004;2023-03-24T11:28:05;100315.88;;;12.53;100.00
48668;BME280;34453;52.198;5.004;2023-03-24T11:30:42;100289.50;;;12.13;100.00
48668;BME280;34453;52.198;5.004;2023-03-24T11:33:25;100299.53;;;12.01;100.00
48668;BME280;34453;52.198;5.004;2023-03-24T11:35:52;100298.03;;;12.40;100.00
48668;BME280;34453;52.198;5.004;2023-03-24T11:38:26;100307.03;;;12.37;100.00
48668;BME280;34453;52.198;5.004;2023-03-24T11:40:55;100301.97;;;12.28;100.00
48668;BME280;34453;52.198;5.004;2023-03-24T11:43:25;100326.56;;;12.35;100.00
48668;BME280;34453;52.198;5.004;2023-03-24T11:46:06;100287.69;;;12.14;100.00
48668;BME280;34453;52.198;5.004;2023-03-24T11:48:39;100318.03;;;12.08;100.00
48668;BME280;34453;52.198;5.004;2023-03-24T11:51:10;100304.44;;;12.05;100.00
48668;BME280;34453;52.198;5.004;2023-03-24T11:53:49;100308.84;;;12.20;100.00
48668;BME280;34453;52.198;5.004;2023-03-24T11:56:41;100305.69;;;12.74;100.00
48668;BME280;34453;52.198;5.004;2023-03-24T12:02:20;100311.31;;;13.02;100.00
48668;BME280;34453;52.198;5.004;2023-03-24T12:08:06;100298.84;;;13.44;100.00
48668;BME280;34453;52.198;5.004;2023-03-24T12:10:46;100302.09;;;13.54;100.00
48668;BME280;34453;52.198;5.004;2023-03-24T12:16:20;100305.75;;;13.05;100.00
48668;BME280;34453;52.198;5.004;2023-03-24T12:27:20;100301.44;;;13.52;100.00
48668;BME280;34453;52.198;5.004;2023-03-24T12:30:01;100307.13;;;13.33;100.00
48668;BME280;34453;52.198;5.004;2023-03-24T12:32:46;100272.56;;;13.44;100.00
48668;BME280;34453;52.198;5.004;2023-03-24T12:35:45;100282.94;;;13.68;100.00
48668;BME280;34453;52.198;5.004;2023-03-24T12:38:20;100303.75;;;13.47;100.00
48668;BME280;34453;52.198;5.004;2023-03-24T12:43:47;100296.44;;;12.86;100.00
48668;BME280;34453;52.198;5.004;2023-03-24T12:54:59;100280.53;;;13.27;100.00
48668;BME280;34453;52.198;5.004;2023-03-24T12:57:35;100283.56;;;13.71;100.00
48668;BME280;34453;52.198;5.004;2023-03-24T13:00:10;100287.44;;;13.20;100.00
48668;BME280;34453;52.198;5.004;2023-03-24T13:05:06;100278.66;;;13.05;100.00
48668;BME280;34453;52.198;5.004;2023-03-24T13:07:35;100284.53;;;12.59;100.00
48668;BME280;34453;52.198;5.004;2023-03-24T13:10:13;100286.72;;;12.48;100.00
48668;BME280;34453;52.198;5.004;2023-03-24T13:12:45;100276.56;;;12.28;100.00
48668;BME280;34453;52.198;5.004;2023-03-24T13:15:18;100282.13;;;12.33;100.00
48668;BME280;34453;52.198;5.004;2023-03-24T13:18:05;100293.78;;;12.31;100.00
48668;BME280;34453;52.198;5.004;2023-03-24T13:20:55;100271.22;;;12.77;100.00
48668;BME280;34453;52.198;5.004;2023-03-24T13:29:28;100268.28;;;12.72;100.00
48668;BME280;34453;52.198;5.004;2023-03-24T13:34:53;100283.00;;;12.90;100.00
48668;BME280;34453;52.198;5.004;2023-03-24T13:37:22;100267.38;;;12.96;100.00
48668;BME280;34453;52.198;5.004;2023-03-24T13:39:55;100263.25;;;12.94;100.00
48668;BME280;34453;52.198;5.004;2023-03-24T13:42:27;100274.75;;;12.37;100.00
48668;BME280;34453;52.198;5.004;2023-03-24T13:44:54;100264.72;;;12.40;100.00
48668;BME280;34453;52.198;5.004;2023-03-24T13:47:19;100258.84;;;12.30;100.00
48668;BME280;34453;52.198;5.004;2023-03-24T13:50:04;100258.50;;;12.33;100.00
48668;BME280;34453;52.198;5.004;2023-03-24T13:52:39;100259.47;;;12.40;100.00
48668;BME280;34453;52.198;5.004;2023-03-24T13:55:28;100254.94;;;13.21;100.00
48668;BME280;34453;52.198;5.004;2023-03-24T13:58:07;100258.66;;;13.27;100.00
48668;BME280;34453;52.198;5.004;2023-03-24T14:03:34;100262.25;;;12.55;100.00
48668;BME280;34453;52.198;5.004;2023-03-24T14:06:06;100273.59;;;12.39;100.00
48668;BME280;34453;52.198;5.004;2023-03-24T14:11:42;100260.00;;;12.28;100.00
48668;BME280;34453;52.198;5.004;2023-03-24T14:19:31;100253.78;;;12.84;100.00
48668;BME280;34453;52.198;5.004;2023-03-24T14:22:07;100247.28;;;12.72;100.00
48668;BME280;34453;52.198;5.004;2023-03-24T14:24:35;100258.34;;;12.99;100.00
48668;BME280;34453;52.198;5.004;2023-03-24T14:30:11;100264.06;;;12.47;100.00
48668;BME280;34453;52.198;5.004;2023-03-24T14:32:45;100258.34;;;12.43;100.00
48668;BME280;34453;52.198;5.004;2023-03-24T14:35:40;100252.19;;;12.67;100.00
48668;BME280;34453;52.198;5.004;2023-03-24T14:40:43;100254.53;;;13.41;100.00
48668;BME280;34453;52.198;5.004;2023-03-24T14:43:28;100225.16;;;13.06;100.00
48668;BME280;34453;52.198;5.004;2023-03-24T14:45:59;100239.09;;;13.06;100.00
48668;BME280;34453;52.198;5.004;2023-03-24T14:54:15;100243.91;;;13.26;100.00
48668;BME280;34453;52.198;5.004;2023-03-24T14:56:44;100228.66;;;12.90;100.00
48668;BME280;34453;52.198;5.004;2023-03-24T14:59:26;100237.59;;;12.64;100.00
48668;BME280;34453;52.198;5.004;2023-03-24T15:01:59;100248.97;;;12.57;100.00
48668;BME280;34453;52.198;5.004;2023-03-24T15:04:26;100250.78;;;12.96;100.00
48668;BME280;34453;52.198;5.004;2023-03-24T15:06:52;100246.88;;;13.31;100.00
48668;BME280;34453;52.198;5.004;2023-03-24T15:09:18;100233.69;;;13.62;100.00
48668;BME280;34453;52.198;5.004;2023-03-24T15:11:45;100245.03;;;13.63;100.00
48668;BME280;34453;52.198;5.004;2023-03-24T15:14:19;100230.66;;;13.19;100.00
48668;BME280;34453;52.198;5.004;2023-03-24T15:16:52;100232.28;;;13.52;100.00